createdAt,value
2023-01-12T00:04:25.527Z,9.30
2023-01-12T00:09:27.401Z,9.40
2023-01-12T00:14:29.313Z,9.30
2023-01-12T00:19:33.179Z,9.40
2023-01-12T00:24:40.549Z,9.40
2023-01-12T00:29:42.482Z,9.40
2023-01-12T00:34:45.039Z,9.50
2023-01-12T00:40:01.011Z,9.50
2023-01-12T00:45:22.058Z,9.50
2023-01-12T00:50:23.722Z,9.50
2023-01-12T00:55:25.390Z,9.50
2023-01-12T01:00:27.030Z,9.50
2023-01-12T01:05:29.911Z,9.50
2023-01-12T01:10:31.547Z,9.50
2023-01-12T01:15:33.281Z,9.50
2023-01-12T01:20:36.676Z,9.50
2023-01-12T01:25:38.461Z,9.50
2023-01-12T01:30:40.203Z,9.50
2023-01-12T01:35:41.874Z,9.40
2023-01-12T01:40:43.583Z,9.50
2023-01-12T01:45:50.769Z,9.40
2023-01-12T01:50:58.045Z,9.40
2023-01-12T01:56:10.432Z,9.30
2023-01-12T02:01:12.075Z,9.30
2023-01-12T02:06:15.131Z,9.30
2023-01-12T02:11:36.337Z,9.30
2023-01-12T02:16:50.915Z,9.30
2023-01-12T02:22:10.286Z,9.30
2023-01-12T02:27:32.428Z,9.30
2023-01-12T02:32:46.108Z,9.30
2023-01-12T02:37:59.745Z,9.30
2023-01-12T02:43:16.176Z,9.30
2023-01-12T02:48:25.563Z,9.30
2023-01-12T02:53:38.443Z,9.30
2023-01-12T02:58:51.577Z,9.30
2023-01-12T03:03:56.594Z,9.30
2023-01-12T03:08:58.315Z,9.30
2023-01-12T03:14:02.754Z,9.40
2023-01-12T03:19:16.243Z,9.40
2023-01-12T03:24:23.242Z,9.40
2023-01-12T03:29:32.628Z,9.40
2023-01-12T03:34:36.140Z,9.40
2023-01-12T03:39:42.907Z,9.50
2023-01-12T03:44:59.465Z,9.50
2023-01-12T03:50:13.384Z,9.50
2023-01-12T03:55:19.339Z,9.50
2023-01-12T04:00:23.002Z,9.60
2023-01-12T04:05:24.730Z,9.60
2023-01-12T04:10:26.416Z,9.60
2023-01-12T04:15:28.225Z,9.60
2023-01-12T04:20:29.960Z,9.60
2023-01-12T04:25:31.587Z,9.60
2023-01-12T04:30:34.529Z,9.60
2023-01-12T04:35:36.184Z,9.60
2023-01-12T04:40:37.815Z,9.60
2023-01-12T04:45:41.551Z,9.60
2023-01-12T04:50:44.518Z,9.60
2023-01-12T04:55:46.212Z,9.60
2023-01-12T05:00:47.912Z,9.60
2023-01-12T05:05:49.579Z,9.60
2023-01-12T05:10:53.253Z,9.70
2023-01-12T05:15:56.495Z,9.60
2023-01-12T05:20:58.277Z,9.60
2023-01-12T05:26:01.023Z,9.60
2023-01-12T05:31:12.489Z,9.60
2023-01-12T05:36:15.695Z,9.60
2023-01-12T05:41:18.456Z,9.60
2023-01-12T05:46:31.608Z,9.60
2023-01-12T05:51:33.364Z,9.60
2023-01-12T05:56:35.087Z,9.50
2023-01-12T06:01:37.255Z,9.50
2023-01-12T06:06:40.941Z,9.40
2023-01-12T06:12:01.278Z,9.40
2023-01-12T06:17:12.086Z,9.40
2023-01-12T06:22:13.842Z,9.30
2023-01-12T06:27:16.658Z,9.20
2023-01-12T06:32:18.320Z,9.20
2023-01-12T06:37:20.061Z,9.20
2023-01-12T06:42:31.642Z,9.30
2023-01-12T06:47:33.595Z,9.20
2023-01-12T06:52:35.314Z,9.20
2023-01-12T06:57:37.071Z,9.20
2023-01-12T07:02:39.296Z,9.20
2023-01-12T07:07:41.158Z,9.30
2023-01-12T07:12:42.924Z,9.30
2023-01-12T07:17:44.702Z,9.30
2023-01-12T07:22:46.431Z,9.30
2023-01-12T07:27:49.727Z,9.40
2023-01-12T07:32:52.044Z,9.30
2023-01-12T07:37:53.974Z,9.30
2023-01-12T07:43:06.072Z,9.30
2023-01-12T07:48:08.335Z,9.30
2023-01-12T07:53:11.121Z,9.30
2023-01-12T07:58:13.835Z,9.30
2023-01-12T08:03:16.595Z,9.30
2023-01-12T08:08:18.295Z,9.30
2023-01-12T08:13:22.894Z,9.30
2023-01-12T08:18:31.027Z,9.40
2023-01-12T08:23:37.732Z,9.40
2023-01-12T08:28:51.315Z,9.50
2023-01-12T08:33:55.286Z,9.40
2023-01-12T08:38:57.607Z,9.50
2023-01-12T08:44:04.504Z,9.60
2023-01-12T08:49:11.391Z,9.60
2023-01-12T08:54:15.502Z,9.70
2023-01-12T08:59:19.130Z,9.70
2023-01-12T09:04:20.945Z,9.70
2023-01-12T09:09:23.095Z,9.80
2023-01-12T09:14:25.708Z,9.80
2023-01-12T09:19:27.391Z,9.90
2023-01-12T09:24:29.170Z,9.90
2023-01-12T09:29:30.889Z,10.10
2023-01-12T09:34:32.812Z,10.00
2023-01-12T09:39:34.561Z,10.20
2023-01-12T09:45:01.510Z,10.20
2023-01-12T09:50:18.023Z,10.20
2023-01-12T09:55:25.937Z,10.40
2023-01-12T10:00:28.743Z,10.40
2023-01-12T10:05:40.522Z,10.40
2023-01-12T10:10:54.837Z,10.50
2023-01-12T10:16:06.778Z,10.40
2023-01-12T10:21:11.059Z,10.50
2023-01-12T10:26:23.029Z,10.50
2023-01-12T10:31:26.003Z,10.50
2023-01-12T10:36:29.443Z,10.60
2023-01-12T10:41:35.379Z,10.70
2023-01-12T10:46:37.014Z,10.70
2023-01-12T10:51:48.843Z,10.80
2023-01-12T10:57:08.368Z,10.80
2023-01-12T11:02:15.857Z,10.90
2023-01-12T11:07:31.538Z,11.00
2023-01-12T11:12:38.384Z,11.10
2023-01-12T11:17:50.209Z,11.10
2023-01-12T11:22:55.469Z,11.20
2023-01-12T11:28:02.504Z,11.40
2023-01-12T11:33:16.465Z,11.30
2023-01-12T11:38:41.117Z,11.40
2023-01-12T11:43:50.957Z,11.40
2023-01-12T11:49:18.313Z,11.50
2023-01-12T11:54:20.132Z,11.60
2023-01-12T11:59:45.630Z,11.50
2023-01-12T12:05:05.125Z,11.60
2023-01-12T12:10:35.541Z,11.50
2023-01-12T12:16:04.260Z,11.60
2023-01-12T12:21:28.126Z,11.60
2023-01-12T12:26:38.173Z,11.60
2023-01-12T12:31:54.877Z,11.60
2023-01-12T12:37:19.654Z,11.60
2023-01-12T12:42:54.344Z,11.70
2023-01-12T12:48:17.765Z,11.70
2023-01-12T12:53:19.375Z,11.70
2023-01-12T12:58:21.200Z,11.60
2023-01-12T13:03:41.232Z,11.50
2023-01-12T13:08:43.188Z,11.40
2023-01-12T13:14:03.860Z,11.30
2023-01-12T13:19:12.599Z,11.20
2023-01-12T13:24:14.367Z,11.10
2023-01-12T13:29:28.343Z,11.20
2023-01-12T13:34:30.081Z,11.10
2023-01-12T13:39:36.449Z,11.10
2023-01-12T13:44:42.211Z,11.10
2023-01-12T13:49:47.330Z,11.10
2023-01-12T13:54:51.306Z,11.10
2023-01-12T14:00:18.653Z,11.10
2023-01-12T14:06:08.145Z,11.10
2023-01-12T14:11:44.594Z,11.20
2023-01-12T14:17:06.023Z,11.20
2023-01-12T14:22:19.159Z,11.30
2023-01-12T14:27:27.371Z,11.20
2023-01-12T14:32:29.346Z,11.30
2023-01-12T14:37:34.795Z,11.20
2023-01-12T14:42:55.208Z,11.30
2023-01-12T14:48:20.354Z,11.30
2023-01-12T14:53:31.034Z,11.30
2023-01-12T14:58:32.939Z,11.30
2023-01-12T15:03:43.277Z,11.30
2023-01-12T15:09:06.784Z,11.30
2023-01-12T15:14:25.410Z,11.30
2023-01-12T15:19:45.562Z,11.40
2023-01-12T15:25:06.109Z,11.30
2023-01-12T15:30:10.375Z,11.30
2023-01-12T15:35:23.666Z,11.30
2023-01-12T15:40:27.652Z,11.30
2023-01-12T15:45:40.211Z,11.30
2023-01-12T15:50:44.427Z,11.30
2023-01-12T15:55:46.954Z,11.30
2023-01-12T16:00:48.694Z,11.30
2023-01-12T16:05:50.344Z,11.30
2023-01-12T16:11:12.025Z,11.30
2023-01-12T16:16:16.267Z,11.30
2023-01-12T16:21:19.174Z,11.30
2023-01-12T16:26:20.972Z,11.30
2023-01-12T16:31:22.754Z,11.30
2023-01-12T16:36:24.462Z,11.20
2023-01-12T16:41:26.119Z,11.30
2023-01-12T16:46:27.784Z,11.20
2023-01-12T16:51:29.679Z,11.20
2023-01-12T16:56:31.601Z,11.20
2023-01-12T17:01:33.455Z,11.20
2023-01-12T17:06:36.821Z,11.20
2023-01-12T17:11:41.135Z,11.20
2023-01-12T17:16:42.786Z,11.20
2023-01-12T17:21:46.551Z,11.20
2023-01-12T17:26:50.813Z,11.20
2023-01-12T17:31:53.826Z,11.30
2023-01-12T17:36:56.258Z,11.20
2023-01-12T17:42:16.643Z,11.20
2023-01-12T17:47:18.425Z,11.20
2023-01-12T17:52:20.867Z,11.20
2023-01-12T17:57:22.681Z,11.20
2023-01-12T18:02:24.403Z,11.20
2023-01-12T18:07:26.222Z,11.20
2023-01-12T18:12:27.932Z,11.20
2023-01-12T18:17:30.122Z,11.20
2023-01-12T18:22:31.734Z,11.20
2023-01-12T18:27:33.507Z,11.20
2023-01-12T18:32:35.134Z,11.30
2023-01-12T18:37:37.005Z,11.30
2023-01-12T18:42:58.950Z,11.30
2023-01-12T18:48:19.177Z,11.30
2023-01-12T18:53:33.291Z,11.30
2023-01-12T18:58:36.842Z,11.30
2023-01-12T19:03:39.046Z,11.20
2023-01-12T19:08:59.274Z,11.20
2023-01-12T19:14:27.201Z,11.20
2023-01-12T19:19:32.083Z,11.20
2023-01-12T19:24:52.442Z,11.20
2023-01-12T19:29:54.105Z,11.20
2023-01-12T19:35:02.300Z,11.20
2023-01-12T19:40:31.669Z,11.20
2023-01-12T19:45:37.202Z,11.20
2023-01-12T19:50:40.268Z,11.20
2023-01-12T19:55:43.299Z,11.30
2023-01-12T20:00:46.116Z,11.30
2023-01-12T20:05:52.007Z,11.30
2023-01-12T20:10:58.996Z,11.40
2023-01-12T20:16:07.136Z,11.40
2023-01-12T20:21:10.329Z,11.40
2023-01-12T20:26:13.116Z,11.40
2023-01-12T20:31:16.753Z,11.40
2023-01-12T20:36:18.764Z,11.40
2023-01-12T20:41:20.787Z,11.40
2023-01-12T20:46:22.647Z,11.40
2023-01-12T20:51:25.221Z,11.30
2023-01-12T20:56:27.046Z,11.40
2023-01-12T21:01:29.089Z,11.40
2023-01-12T21:06:31.885Z,11.30
2023-01-12T21:11:33.619Z,11.40
2023-01-12T21:16:35.582Z,11.40
2023-01-12T21:21:37.245Z,11.40
2023-01-12T21:26:39.022Z,11.40
2023-01-12T21:31:40.769Z,11.30
2023-01-12T21:36:42.509Z,11.40
2023-01-12T21:42:02.963Z,11.30
2023-01-12T21:47:04.929Z,11.30
2023-01-12T21:52:06.588Z,11.40
2023-01-12T21:57:08.302Z,11.30
2023-01-12T22:02:11.615Z,11.30
2023-01-12T22:07:13.456Z,11.30
2023-01-12T22:12:15.201Z,11.30
2023-01-12T22:17:17.021Z,11.30
2023-01-12T22:22:18.651Z,11.30
2023-01-12T22:27:20.364Z,11.30
2023-01-12T22:32:21.977Z,11.30
2023-01-12T22:37:23.591Z,11.30
2023-01-12T22:42:45.233Z,11.30
2023-01-12T22:47:54.910Z,11.30
2023-01-12T22:52:56.610Z,11.30
2023-01-12T22:57:58.267Z,11.30
2023-01-12T23:03:00.010Z,11.30
2023-01-12T23:08:03.265Z,11.30
2023-01-12T23:13:15.906Z,11.30
2023-01-12T23:18:20.169Z,11.30
2023-01-12T23:23:21.813Z,11.30
2023-01-12T23:28:23.462Z,11.40
2023-01-12T23:33:25.088Z,11.30
2023-01-12T23:38:26.724Z,11.40
2023-01-12T23:43:29.248Z,11.40
2023-01-12T23:48:30.936Z,11.30
2023-01-12T23:53:33.036Z,11.40
2023-01-12T23:58:35.069Z,11.40
